Aérodrome :
LOGIN :

S'inscrire | Disclaimer

   EN    FR    IT 

 










Légende :    VFR   VFR Marginal   IFR   IFR Intensif   IFR Très Intensif
Visi : 
Plafond : 
>= 8 km
>= 3000ft
5 à 8 km
1000 à 3000 ft
1500m à 5 km
500 à 1000 ft
800 à 1500m
200 à 500 ft
< 800m
< 200 ft
Symboles :   Orages  Brouillard  Fortes neiges  Fortes précipitations  Vent > 20 kt
SIGMETs :   Divers  Orages  Givrage  Turbulence  Onde Orograph.  Cendres Volcan.






- Altitude de l'aérodrome : 117 ft
- Code IATA : NWI


EGSH - Norwich

DERNIER METAR :
  • 280550Z 22004KT 180V240 0500 R27/0800 FG OVC001 04/04 Q1019 TEMPO 0300 GF

METARs EXPIRÉS :
  • 280520Z AUTO 24004KT 200V270 0300 FG OVC001/// 04/04 Q1019
  • 280450Z AUTO 24005KT 0350 FG OVC001/// 04/04 Q1018
  • 280420Z AUTO 25006KT 0500 FG OVC001/// 05/04 Q1019
  • 280350Z AUTO 25005KT 0450 FG OVC001/// 05/05 Q1019
  • 280320Z AUTO 23004KT 200V280 4500 BR BKN002/// 04/03 Q1019
  • 280250Z AUTO 22005KT 6000 FEW004/// 03/03 Q1019
  • 280220Z AUTO 21005KT 7000 NCD 04/03 Q1018
  • 280150Z AUTO 20004KT 170V230 8000 NCD 03/02 Q1018
  • 280120Z AUTO 22004KT 9999 NCD 04/04 Q1019
  • 280050Z AUTO 24005KT 9999 FEW006/// 04/03 Q1019

TAF COR TAF EGSH
Valide du 28 à 06h jusqu'au 28 à 15h UTC


280542Z 2806/2815 23007KT 0300 FG VV///
PROB30 2806/2810 2000 BR BKN002
BECMG 2810/2813 9999 NSW FEW020
ATIS : +44 1603 420 640



MET'MAP, la Météo Aéronautique d'un coup d'oeil ! - Copyright ORBIFLY Décembre 2007 - Disclaimer

ORBIFLY MET'MAP TEAM :

Programmation & Développement : Alexandra Zaïnal
Sur une idée originale de : Baudouin d'Aumeries
Soutien technique & logistique : Manuel Goepfert
Assistance : Marc-Olivier Méhu




SOURCES & CREDITS :

   NOAA